sensor_id;sensor_type;location;lat;lon;timestamp;pressure;altitude;pressure_sealevel;temperature;humidity
50226;BME280;36113;50.742;6.432;2023-02-12T00:00:29;146327.31;;;5.42;100.00
50226;BME280;36113;50.742;6.432;2023-02-12T00:02:54;146286.16;;;5.25;100.00
50226;BME280;36113;50.742;6.432;2023-02-12T00:05:20;146292.34;;;5.28;100.00
50226;BME280;36113;50.742;6.432;2023-02-12T00:07:45;146262.44;;;5.15;100.00
50226;BME280;36113;50.742;6.432;2023-02-12T00:10:10;146314.84;;;5.37;100.00
50226;BME280;36113;50.742;6.432;2023-02-12T00:12:36;146324.81;;;5.41;100.00
50226;BME280;36113;50.742;6.432;2023-02-12T00:15:01;146309.88;;;5.35;100.00
50226;BME280;36113;50.742;6.432;2023-02-12T00:17:26;146282.41;;;5.23;100.00
50226;BME280;36113;50.742;6.432;2023-02-12T00:19:52;146319.81;;;5.39;100.00
50226;BME280;36113;50.742;6.432;2023-02-12T00:22:17;146273.66;;;5.20;100.00
50226;BME280;36113;50.742;6.432;2023-02-12T00:24:42;146272.44;;;5.19;100.00
50226;BME280;36113;50.742;6.432;2023-02-12T00:27:08;146309.88;;;5.35;100.00
50226;BME280;36113;50.742;6.432;2023-02-12T00:29:33;146308.59;;;5.34;100.00
50226;BME280;36113;50.742;6.432;2023-02-12T00:31:58;146304.84;;;5.33;100.00
50226;BME280;36113;50.742;6.432;2023-02-12T00:34:23;146288.66;;;5.26;100.00
50226;BME280;36113;50.742;6.432;2023-02-12T00:36:49;146288.66;;;5.26;100.00
50226;BME280;36113;50.742;6.432;2023-02-12T00:39:14;146311.09;;;5.35;100.00
50226;BME280;36113;50.742;6.432;2023-02-12T00:41:39;146267.41;;;5.17;100.00
50226;BME280;36113;50.742;6.432;2023-02-12T00:44:05;146258.69;;;5.14;100.00
50226;BME280;36113;50.742;6.432;2023-02-12T00:46:30;146294.88;;;5.29;100.00
50226;BME280;36113;50.742;6.432;2023-02-12T00:48:55;146284.91;;;5.24;100.00
50226;BME280;36113;50.742;6.432;2023-02-12T00:51:20;146297.38;;;5.30;100.00
50226;BME280;36113;50.742;6.432;2023-02-12T00:53:46;146297.38;;;5.30;100.00
50226;BME280;36113;50.742;6.432;2023-02-12T00:56:11;146254.94;;;5.12;100.00
50226;BME280;36113;50.742;6.432;2023-02-12T00:58:37;146289.91;;;5.26;100.00
50226;BME280;36113;50.742;6.432;2023-02-12T01:01:02;146221.25;;;4.98;100.00
50226;BME280;36113;50.742;6.432;2023-02-12T01:03:27;146253.69;;;5.12;100.00
50226;BME280;36113;50.742;6.432;2023-02-12T01:05:53;146286.16;;;5.25;100.00
50226;BME280;36113;50.742;6.432;2023-02-12T01:08:18;146284.91;;;5.24;100.00
50226;BME280;36113;50.742;6.432;2023-02-12T01:10:43;146217.50;;;4.97;100.00
50226;BME280;36113;50.742;6.432;2023-02-12T01:13:13;146277.41;;;5.21;100.00
50226;BME280;36113;50.742;6.432;2023-02-12T01:15:40;146281.16;;;5.23;100.00
50226;BME280;36113;50.742;6.432;2023-02-12T01:18:05;146242.47;;;5.07;100.00
50226;BME280;36113;50.742;6.432;2023-02-12T01:20:31;146283.63;;;5.24;100.00
50226;BME280;36113;50.742;6.432;2023-02-12T01:22:56;146253.69;;;5.12;100.00
50226;BME280;36113;50.742;6.432;2023-02-12T01:25:22;146272.44;;;5.19;100.00
50226;BME280;36113;50.742;6.432;2023-02-12T01:27:47;146274.91;;;5.20;100.00
50226;BME280;36113;50.742;6.432;2023-02-12T01:30:13;146277.41;;;5.21;100.00
50226;BME280;36113;50.742;6.432;2023-02-12T01:32:39;146268.69;;;5.18;100.00
50226;BME280;36113;50.742;6.432;2023-02-12T01:35:05;146252.47;;;5.11;100.00
50226;BME280;36113;50.742;6.432;2023-02-12T01:37:34;146261.19;;;5.15;100.00
50226;BME280;36113;50.742;6.432;2023-02-12T01:40:00;146274.91;;;5.20;100.00
50226;BME280;36113;50.742;6.432;2023-02-12T01:42:26;146268.69;;;5.18;100.00
50226;BME280;36113;50.742;6.432;2023-02-12T01:48:00;146273.66;;;5.20;100.00
50226;BME280;36113;50.742;6.432;2023-02-12T01:50:26;146254.94;;;5.12;100.00
50226;BME280;36113;50.742;6.432;2023-02-12T01:52:54;146276.19;;;5.21;100.00
50226;BME280;36113;50.742;6.432;2023-02-12T01:55:21;146232.50;;;5.03;100.00
50226;BME280;36113;50.742;6.432;2023-02-12T01:57:48;146279.88;;;5.22;100.00
50226;BME280;36113;50.742;6.432;2023-02-12T02:00:16;146268.69;;;5.18;100.00
50226;BME280;36113;50.742;6.432;2023-02-12T02:02:44;146276.19;;;5.21;100.00
50226;BME280;36113;50.742;6.432;2023-02-12T02:05:11;146274.91;;;5.20;100.00
50226;BME280;36113;50.742;6.432;2023-02-12T02:07:40;146283.63;;;5.24;100.00
50226;BME280;36113;50.742;6.432;2023-02-12T02:10:07;146267.41;;;5.17;100.00
50226;BME280;36113;50.742;6.432;2023-02-12T02:12:33;146263.72;;;5.16;100.00
50226;BME280;36113;50.742;6.432;2023-02-12T02:15:18;146257.44;;;5.13;100.00
50226;BME280;36113;50.742;6.432;2023-02-12T02:18:10;146276.19;;;5.21;100.00
50226;BME280;36113;50.742;6.432;2023-02-12T02:23:44;146269.94;;;5.18;100.00
50226;BME280;36113;50.742;6.432;2023-02-12T02:32:05;146273.66;;;5.20;100.00
50226;BME280;36113;50.742;6.432;2023-02-12T02:34:52;146274.91;;;5.20;100.00
50226;BME280;36113;50.742;6.432;2023-02-12T02:37:27;146273.66;;;5.20;100.00
50226;BME280;36113;50.742;6.432;2023-02-12T02:40:10;146257.44;;;5.13;100.00
50226;BME280;36113;50.742;6.432;2023-02-12T02:42:42;146256.22;;;5.13;100.00
50226;BME280;36113;50.742;6.432;2023-02-12T02:45:15;146223.78;;;4.99;100.00
50226;BME280;36113;50.742;6.432;2023-02-12T02:47:57;146263.72;;;5.16;100.00
50226;BME280;36113;50.742;6.432;2023-02-12T02:50:27;146241.22;;;5.06;100.00
50226;BME280;36113;50.742;6.432;2023-02-12T02:53:01;146261.19;;;5.15;100.00
50226;BME280;36113;50.742;6.432;2023-02-12T02:55:34;146267.41;;;5.17;100.00
50226;BME280;36113;50.742;6.432;2023-02-12T02:58:09;146257.44;;;5.13;100.00
50226;BME280;36113;50.742;6.432;2023-02-12T03:03:11;146220.03;;;4.98;100.00
50226;BME280;36113;50.742;6.432;2023-02-12T03:05:43;146251.25;;;5.11;100.00
50226;BME280;36113;50.742;6.432;2023-02-12T03:08:36;146227.53;;;5.01;100.00
50226;BME280;36113;50.742;6.432;2023-02-12T03:11:14;146257.44;;;5.13;100.00
50226;BME280;36113;50.742;6.432;2023-02-12T03:14:31;146268.69;;;5.18;100.00
50226;BME280;36113;50.742;6.432;2023-02-12T03:16:50;146254.94;;;5.12;100.00
50226;BME280;36113;50.742;6.432;2023-02-12T03:19:44;146244.97;;;5.08;100.00
50226;BME280;36113;50.742;6.432;2023-02-12T03:22:17;146248.72;;;5.10;100.00
50226;BME280;36113;50.742;6.432;2023-02-12T03:24:48;146241.22;;;5.06;100.00
50226;BME280;36113;50.742;6.432;2023-02-12T03:27:38;146240.00;;;5.06;100.00
50226;BME280;36113;50.742;6.432;2023-02-12T03:30:06;146227.53;;;5.01;100.00
50226;BME280;36113;50.742;6.432;2023-02-12T03:32:37;146222.53;;;4.99;100.00
50226;BME280;36113;50.742;6.432;2023-02-12T03:35:26;146227.53;;;5.01;100.00
50226;BME280;36113;50.742;6.432;2023-02-12T03:41:02;146205.03;;;4.92;100.00
50226;BME280;36113;50.742;6.432;2023-02-12T03:43:41;146221.25;;;4.98;100.00
50226;BME280;36113;50.742;6.432;2023-02-12T03:49:06;146178.88;;;4.81;100.00
50226;BME280;36113;50.742;6.432;2023-02-12T03:51:37;146213.81;;;4.95;100.00
50226;BME280;36113;50.742;6.432;2023-02-12T03:54:05;146216.28;;;4.96;100.00
50226;BME280;36113;50.742;6.432;2023-02-12T03:56:40;146212.53;;;4.95;100.00
50226;BME280;36113;50.742;6.432;2023-02-12T03:59:07;146206.31;;;4.92;100.00
50226;BME280;36113;50.742;6.432;2023-02-12T04:01:34;146208.78;;;4.93;100.00
50226;BME280;36113;50.742;6.432;2023-02-12T04:04:03;146198.81;;;4.89;100.00
50226;BME280;36113;50.742;6.432;2023-02-12T04:06:28;146200.06;;;4.89;100.00
50226;BME280;36113;50.742;6.432;2023-02-12T04:08:56;146160.19;;;4.73;100.00
50226;BME280;36113;50.742;6.432;2023-02-12T04:11:39;146195.09;;;4.87;100.00
50226;BME280;36113;50.742;6.432;2023-02-12T04:14:24;146110.31;;;4.53;100.00
50226;BME280;36113;50.742;6.432;2023-02-12T04:17:28;146191.34;;;4.86;100.00
50226;BME280;36113;50.742;6.432;2023-02-12T04:26:01;146180.16;;;4.81;100.00
50226;BME280;36113;50.742;6.432;2023-02-12T04:28:57;146142.72;;;4.66;100.00
50226;BME280;36113;50.742;6.432;2023-02-12T04:31:38;146170.16;;;4.77;100.00
50226;BME280;36113;50.742;6.432;2023-02-12T04:36:52;146168.91;;;4.77;100.00
50226;BME280;36113;50.742;6.432;2023-02-12T04:39:26;146166.41;;;4.76;100.00
50226;BME280;36113;50.742;6.432;2023-02-12T04:41:53;146162.66;;;4.74;100.00
50226;BME280;36113;50.742;6.432;2023-02-12T04:44:24;146163.94;;;4.75;100.00
50226;BME280;36113;50.742;6.432;2023-02-12T04:46:51;146148.94;;;4.68;100.00
50226;BME280;36113;50.742;6.432;2023-02-12T04:49:18;146156.44;;;4.72;100.00
50226;BME280;36113;50.742;6.432;2023-02-12T04:51:44;146162.66;;;4.74;100.00
50226;BME280;36113;50.742;6.432;2023-02-12T04:54:10;146157.66;;;4.72;100.00
50226;BME280;36113;50.742;6.432;2023-02-12T04:56:35;146148.94;;;4.68;100.00
50226;BME280;36113;50.742;6.432;2023-02-12T04:59:01;146148.94;;;4.68;100.00
50226;BME280;36113;50.742;6.432;2023-02-12T05:01:26;146141.47;;;4.65;100.00
50226;BME280;36113;50.742;6.432;2023-02-12T05:03:52;146143.97;;;4.66;100.00
50226;BME280;36113;50.742;6.432;2023-02-12T05:06:17;146137.72;;;4.64;100.00
50226;BME280;36113;50.742;6.432;2023-02-12T05:08:43;146137.72;;;4.64;100.00
50226;BME280;36113;50.742;6.432;2023-02-12T05:11:09;146151.47;;;4.69;100.00
50226;BME280;36113;50.742;6.432;2023-02-12T05:13:35;146146.44;;;4.67;100.00
50226;BME280;36113;50.742;6.432;2023-02-12T05:16:05;146146.44;;;4.67;100.00
50226;BME280;36113;50.742;6.432;2023-02-12T05:18:32;146104.06;;;4.50;100.00
50226;BME280;36113;50.742;6.432;2023-02-12T05:20:58;146102.81;;;4.49;100.00
50226;BME280;36113;50.742;6.432;2023-02-12T05:23:25;146107.78;;;4.51;100.00
50226;BME280;36113;50.742;6.432;2023-02-12T05:25:52;146104.06;;;4.50;100.00
50226;BME280;36113;50.742;6.432;2023-02-12T05:28:17;146097.84;;;4.47;100.00
50226;BME280;36113;50.742;6.432;2023-02-12T05:30:42;146133.97;;;4.62;100.00
50226;BME280;36113;50.742;6.432;2023-02-12T05:33:08;146150.19;;;4.69;100.00
50226;BME280;36113;50.742;6.432;2023-02-12T05:35:34;146156.44;;;4.72;100.00
50226;BME280;36113;50.742;6.432;2023-02-12T05:37:59;146148.94;;;4.68;100.00
50226;BME280;36113;50.742;6.432;2023-02-12T05:40:24;146109.03;;;4.52;100.00
50226;BME280;36113;50.742;6.432;2023-02-12T05:42:50;146142.72;;;4.66;100.00
50226;BME280;36113;50.742;6.432;2023-02-12T05:45:15;146141.47;;;4.65;100.00
50226;BME280;36113;50.742;6.432;2023-02-12T05:47:40;146151.47;;;4.69;100.00
50226;BME280;36113;50.742;6.432;2023-02-12T05:50:06;146143.97;;;4.66;100.00
50226;BME280;36113;50.742;6.432;2023-02-12T05:52:34;146127.75;;;4.60;100.00
50226;BME280;36113;50.742;6.432;2023-02-12T05:55:00;146139.00;;;4.64;100.00
50226;BME280;36113;50.742;6.432;2023-02-12T05:57:25;146142.72;;;4.66;100.00
50226;BME280;36113;50.742;6.432;2023-02-12T05:59:50;146095.31;;;4.46;100.00
50226;BME280;36113;50.742;6.432;2023-02-12T06:02:15;146122.78;;;4.58;100.00
50226;BME280;36113;50.742;6.432;2023-02-12T06:04:41;146130.25;;;4.61;100.00
50226;BME280;36113;50.742;6.432;2023-02-12T06:07:06;146132.72;;;4.62;100.00
50226;BME280;36113;50.742;6.432;2023-02-12T06:09:32;146130.25;;;4.61;100.00
50226;BME280;36113;50.742;6.432;2023-02-12T06:11:59;146126.53;;;4.59;100.00
50226;BME280;36113;50.742;6.432;2023-02-12T06:14:24;146105.34;;;4.50;100.00
50226;BME280;36113;50.742;6.432;2023-02-12T06:16:50;146140.22;;;4.65;100.00
50226;BME280;36113;50.742;6.432;2023-02-12T06:19:16;146125.25;;;4.59;100.00
50226;BME280;36113;50.742;6.432;2023-02-12T06:21:41;146125.25;;;4.59;100.00
50226;BME280;36113;50.742;6.432;2023-02-12T06:24:08;146124.00;;;4.58;100.00
50226;BME280;36113;50.742;6.432;2023-02-12T06:26:33;146121.50;;;4.57;100.00
50226;BME280;36113;50.742;6.432;2023-02-12T06:29:00;146131.50;;;4.61;100.00
50226;BME280;36113;50.742;6.432;2023-02-12T06:31:28;146132.72;;;4.62;100.00
50226;BME280;36113;50.742;6.432;2023-02-12T06:33:55;146121.50;;;4.57;100.00
50226;BME280;36113;50.742;6.432;2023-02-12T06:36:21;146124.00;;;4.58;100.00
50226;BME280;36113;50.742;6.432;2023-02-12T06:38:46;146112.78;;;4.54;100.00
50226;BME280;36113;50.742;6.432;2023-02-12T06:41:12;146117.78;;;4.56;100.00
50226;BME280;36113;50.742;6.432;2023-02-12T06:43:37;146102.81;;;4.49;100.00
50226;BME280;36113;50.742;6.432;2023-02-12T06:46:04;146126.53;;;4.59;100.00
50226;BME280;36113;50.742;6.432;2023-02-12T06:48:30;146131.50;;;4.61;100.00
50226;BME280;36113;50.742;6.432;2023-02-12T06:51:02;146099.06;;;4.48;100.00
50226;BME280;36113;50.742;6.432;2023-02-12T06:53:27;146121.50;;;4.57;100.00
50226;BME280;36113;50.742;6.432;2023-02-12T06:55:53;146125.25;;;4.59;100.00
50226;BME280;36113;50.742;6.432;2023-02-12T06:58:18;146136.47;;;4.63;100.00
50226;BME280;36113;50.742;6.432;2023-02-12T07:00:43;146150.19;;;4.69;100.00
50226;BME280;36113;50.742;6.432;2023-02-12T07:03:08;146145.19;;;4.67;100.00
50226;BME280;36113;50.742;6.432;2023-02-12T07:05:34;146127.75;;;4.60;100.00
50226;BME280;36113;50.742;6.432;2023-02-12T07:08:02;146137.72;;;4.64;100.00
50226;BME280;36113;50.742;6.432;2023-02-12T07:10:27;146132.72;;;4.62;100.00
50226;BME280;36113;50.742;6.432;2023-02-12T07:12:52;146147.72;;;4.68;100.00
50226;BME280;36113;50.742;6.432;2023-02-12T07:15:17;146148.94;;;4.68;100.00
50226;BME280;36113;50.742;6.432;2023-02-12T07:17:43;146143.97;;;4.66;100.00
50226;BME280;36113;50.742;6.432;2023-02-12T07:20:08;146155.19;;;4.71;100.00
50226;BME280;36113;50.742;6.432;2023-02-12T07:22:37;146158.91;;;4.73;100.00
50226;BME280;36113;50.742;6.432;2023-02-12T07:25:02;146147.72;;;4.68;100.00
50226;BME280;36113;50.742;6.432;2023-02-12T07:27:28;146161.41;;;4.74;100.00
50226;BME280;36113;50.742;6.432;2023-02-12T07:29:56;146161.41;;;4.74;100.00
50226;BME280;36113;50.742;6.432;2023-02-12T07:32:21;146172.66;;;4.78;100.00
50226;BME280;36113;50.742;6.432;2023-02-12T07:34:49;146183.84;;;4.83;100.00
50226;BME280;36113;50.742;6.432;2023-02-12T07:37:17;146177.63;;;4.80;100.00
50226;BME280;36113;50.742;6.432;2023-02-12T07:39:46;146185.13;;;4.83;100.00
50226;BME280;36113;50.742;6.432;2023-02-12T07:42:12;146191.34;;;4.86;100.00
50226;BME280;36113;50.742;6.432;2023-02-12T07:44:39;146197.59;;;4.88;100.00
50226;BME280;36113;50.742;6.432;2023-02-12T07:47:04;146198.81;;;4.89;100.00
50226;BME280;36113;50.742;6.432;2023-02-12T07:49:30;146137.72;;;4.64;100.00
50226;BME280;36113;50.742;6.432;2023-02-12T07:51:55;146213.81;;;4.95;100.00
50226;BME280;36113;50.742;6.432;2023-02-12T07:54:20;146178.88;;;4.81;100.00
50226;BME280;36113;50.742;6.432;2023-02-12T07:56:46;146168.91;;;4.77;100.00
50226;BME280;36113;50.742;6.432;2023-02-12T07:59:13;146232.50;;;5.03;100.00
50226;BME280;36113;50.742;6.432;2023-02-12T08:01:41;146241.22;;;5.06;100.00
50226;BME280;36113;50.742;6.432;2023-02-12T08:04:12;146244.97;;;5.08;100.00
50226;BME280;36113;50.742;6.432;2023-02-12T08:06:43;146244.97;;;5.08;100.00
50226;BME280;36113;50.742;6.432;2023-02-12T08:09:11;146247.50;;;5.09;100.00
50226;BME280;36113;50.742;6.432;2023-02-12T08:11:38;146263.72;;;5.16;100.00
50226;BME280;36113;50.742;6.432;2023-02-12T08:14:03;146274.91;;;5.20;100.00
50226;BME280;36113;50.742;6.432;2023-02-12T08:16:29;146264.94;;;5.16;100.00
50226;BME280;36113;50.742;6.432;2023-02-12T08:18:56;146273.66;;;5.20;100.00
50226;BME280;36113;50.742;6.432;2023-02-12T08:21:24;146282.41;;;5.23;100.00
50226;BME280;36113;50.742;6.432;2023-02-12T08:23:50;146292.34;;;5.28;100.00
50226;BME280;36113;50.742;6.432;2023-02-12T08:26:21;146298.63;;;5.30;100.00
50226;BME280;36113;50.742;6.432;2023-02-12T08:28:49;146318.59;;;5.38;100.00
50226;BME280;36113;50.742;6.432;2023-02-12T08:31:17;146297.38;;;5.30;100.00
50226;BME280;36113;50.742;6.432;2023-02-12T08:33:45;146333.53;;;5.44;100.00
50226;BME280;36113;50.742;6.432;2023-02-12T08:36:12;146334.81;;;5.45;100.00
50226;BME280;36113;50.742;6.432;2023-02-12T08:38:40;146337.28;;;5.46;100.00
50226;BME280;36113;50.742;6.432;2023-02-12T08:41:07;146346.00;;;5.50;100.00
50226;BME280;36113;50.742;6.432;2023-02-12T08:43:33;146351.00;;;5.52;100.00
50226;BME280;36113;50.742;6.432;2023-02-12T08:46:07;146349.75;;;5.51;100.00
50226;BME280;36113;50.742;6.432;2023-02-12T08:48:33;146361.00;;;5.56;100.00
50226;BME280;36113;50.742;6.432;2023-02-12T08:51:05;146298.63;;;5.30;100.00
50226;BME280;36113;50.742;6.432;2023-02-12T08:53:31;146375.94;;;5.62;100.00
50226;BME280;36113;50.742;6.432;2023-02-12T08:55:56;146377.22;;;5.62;100.00
50226;BME280;36113;50.742;6.432;2023-02-12T08:58:21;146383.44;;;5.65;100.00
50226;BME280;36113;50.742;6.432;2023-02-12T09:00:47;146322.34;;;5.40;100.00
50226;BME280;36113;50.742;6.432;2023-02-12T09:03:12;146361.00;;;5.56;100.00
50226;BME280;36113;50.742;6.432;2023-02-12T09:05:39;146380.97;;;5.64;100.00
50226;BME280;36113;50.742;6.432;2023-02-12T09:08:04;146422.13;;;5.81;100.00
50226;BME280;36113;50.742;6.432;2023-02-12T09:10:29;146419.66;;;5.80;100.00
50226;BME280;36113;50.742;6.432;2023-02-12T09:12:55;146418.41;;;5.79;100.00
50226;BME280;36113;50.742;6.432;2023-02-12T09:15:20;146424.63;;;5.82;100.00
50226;BME280;36113;50.742;6.432;2023-02-12T09:17:45;146433.38;;;5.86;100.00
50226;BME280;36113;50.742;6.432;2023-02-12T09:20:11;146457.09;;;5.95;100.00
50226;BME280;36113;50.742;6.432;2023-02-12T09:22:36;146452.13;;;5.93;100.00
50226;BME280;36113;50.742;6.432;2023-02-12T09:25:04;146468.41;;;6.00;100.00
50226;BME280;36113;50.742;6.432;2023-02-12T09:27:30;146468.41;;;6.00;100.00
50226;BME280;36113;50.742;6.432;2023-02-12T09:29:55;146450.84;;;5.93;100.00
50226;BME280;36113;50.742;6.432;2023-02-12T09:32:20;146448.38;;;5.92;100.00
50226;BME280;36113;50.742;6.432;2023-02-12T09:34:45;146408.41;;;5.75;100.00
50226;BME280;36113;50.742;6.432;2023-02-12T09:37:11;146449.59;;;5.92;100.00
50226;BME280;36113;50.742;6.432;2023-02-12T09:39:36;146467.13;;;5.99;100.00
50226;BME280;36113;50.742;6.432;2023-02-12T09:44:45;146483.34;;;6.06;100.00
50226;BME280;36113;50.742;6.432;2023-02-12T09:52:34;146369.75;;;5.59;100.00
50226;BME280;36113;50.742;6.432;2023-02-12T09:55:00;146458.38;;;5.96;100.00
50226;BME280;36113;50.742;6.432;2023-02-12T09:57:30;146448.38;;;5.92;100.00
50226;BME280;36113;50.742;6.432;2023-02-12T10:00:03;146452.13;;;5.93;100.00
50226;BME280;36113;50.742;6.432;2023-02-12T10:02:29;146485.88;;;6.07;100.00
50226;BME280;36113;50.742;6.432;2023-02-12T10:04:54;146462.13;;;5.97;100.00
50226;BME280;36113;50.742;6.432;2023-02-12T10:16:09;146523.31;;;6.23;100.00
50226;BME280;36113;50.742;6.432;2023-02-12T10:19:04;146537.03;;;6.28;100.00
50226;BME280;36113;50.742;6.432;2023-02-12T10:21:58;146558.25;;;6.37;100.00
50226;BME280;36113;50.742;6.432;2023-02-12T10:24:52;146582.00;;;6.47;100.00
50226;BME280;36113;50.742;6.432;2023-02-12T10:27:35;146589.50;;;6.50;100.00
50226;BME280;36113;50.742;6.432;2023-02-12T10:30:05;146604.44;;;6.56;100.00
50226;BME280;36113;50.742;6.432;2023-02-12T10:32:38;146608.19;;;6.57;100.00
50226;BME280;36113;50.742;6.432;2023-02-12T10:35:12;146626.91;;;6.65;100.00
50226;BME280;36113;50.742;6.432;2023-02-12T10:38:05;146630.66;;;6.67;100.00
50226;BME280;36113;50.742;6.432;2023-02-12T10:40:36;146644.44;;;6.72;100.00
50226;BME280;36113;50.742;6.432;2023-02-12T10:43:03;146650.66;;;6.75;100.00
50226;BME280;36113;50.742;6.432;2023-02-12T10:48:15;146694.41;;;6.93;100.00
50226;BME280;36113;50.742;6.432;2023-02-12T10:50:56;146626.91;;;6.65;100.00
50226;BME280;36113;50.742;6.432;2023-02-12T10:53:38;146660.69;;;6.79;100.00
50226;BME280;36113;50.742;6.432;2023-02-12T10:56:17;146695.63;;;6.93;100.00
50226;BME280;36113;50.742;6.432;2023-02-12T11:01:24;146701.84;;;6.96;100.00
50226;BME280;36113;50.742;6.432;2023-02-12T11:03:51;146721.84;;;7.04;100.00
50226;BME280;36113;50.742;6.432;2023-02-12T11:06:28;146681.91;;;6.88;100.00
50226;BME280;36113;50.742;6.432;2023-02-12T11:08:54;146670.66;;;6.83;100.00
50226;BME280;36113;50.742;6.432;2023-02-12T11:11:24;146706.88;;;6.98;100.00
50226;BME280;36113;50.742;6.432;2023-02-12T11:14:06;146709.38;;;6.99;100.00
50226;BME280;36113;50.742;6.432;2023-02-12T11:16:36;146719.38;;;7.03;100.00
50226;BME280;36113;50.742;6.432;2023-02-12T11:19:06;146738.09;;;7.11;100.00
50226;BME280;36113;50.742;6.432;2023-02-12T11:21:34;146751.81;;;7.17;100.00
50226;BME280;36113;50.742;6.432;2023-02-12T11:24:30;146795.59;;;7.35;100.00
50226;BME280;36113;50.742;6.432;2023-02-12T11:29:41;146780.56;;;7.28;100.00
50226;BME280;36113;50.742;6.432;2023-02-12T11:32:08;146833.06;;;7.50;100.00
50226;BME280;36113;50.742;6.432;2023-02-12T11:34:39;146831.78;;;7.49;100.00
50226;BME280;36113;50.742;6.432;2023-02-12T11:37:14;146853.06;;;7.58;100.00
50226;BME280;36113;50.742;6.432;2023-02-12T11:39:45;146849.31;;;7.57;100.00
50226;BME280;36113;50.742;6.432;2023-02-12T11:42:16;146850.56;;;7.57;100.00
50226;BME280;36113;50.742;6.432;2023-02-12T11:44:48;146863.06;;;7.62;100.00
50226;BME280;36113;50.742;6.432;2023-02-12T11:47:40;146836.81;;;7.51;100.00
50226;BME280;36113;50.742;6.432;2023-02-12T11:50:24;146830.56;;;7.49;100.00
50226;BME280;36113;50.742;6.432;2023-02-12T11:52:53;146829.31;;;7.48;100.00
50226;BME280;36113;50.742;6.432;2023-02-12T11:55:29;146841.81;;;7.54;100.00
50226;BME280;36113;50.742;6.432;2023-02-12T11:58:16;146846.81;;;7.56;100.00
50226;BME280;36113;50.742;6.432;2023-02-12T12:00:48;146865.56;;;7.63;100.00
50226;BME280;36113;50.742;6.432;2023-02-12T12:05:54;146856.78;;;7.60;100.00
50226;BME280;36113;50.742;6.432;2023-02-12T12:08:25;146826.81;;;7.47;100.00
50226;BME280;36113;50.742;6.432;2023-02-12T12:13:34;146871.81;;;7.66;100.00
50226;BME280;36113;50.742;6.432;2023-02-12T12:16:09;146839.28;;;7.53;100.00
50226;BME280;36113;50.742;6.432;2023-02-12T12:19:16;146843.06;;;7.54;100.00
50226;BME280;36113;50.742;6.432;2023-02-12T12:22:15;146901.78;;;7.78;100.00
50226;BME280;36113;50.742;6.432;2023-02-12T12:24:55;146884.31;;;7.71;100.00
50226;BME280;36113;50.742;6.432;2023-02-12T12:31:13;146884.31;;;7.71;100.00
50226;BME280;36113;50.742;6.432;2023-02-12T12:33:46;146895.56;;;7.76;100.00
50226;BME280;36113;50.742;6.432;2023-02-12T12:38:49;146900.56;;;7.78;100.00
50226;BME280;36113;50.742;6.432;2023-02-12T12:41:44;146926.78;;;7.88;100.00
50226;BME280;36113;50.742;6.432;2023-02-12T12:47:10;146933.06;;;7.91;100.00
50226;BME280;36113;50.742;6.432;2023-02-12T12:52:42;146934.31;;;7.92;100.00
50226;BME280;36113;50.742;6.432;2023-02-12T12:55:26;146943.03;;;7.95;100.00
50226;BME280;36113;50.742;6.432;2023-02-12T12:58:05;146965.53;;;8.04;100.00
50226;BME280;36113;50.742;6.432;2023-02-12T13:11:39;146881.78;;;7.70;100.00
50226;BME280;36113;50.742;6.432;2023-02-12T13:14:27;146896.81;;;7.76;100.00
50226;BME280;36113;50.742;6.432;2023-02-12T13:17:19;146908.06;;;7.81;100.00
50226;BME280;36113;50.742;6.432;2023-02-12T13:22:59;146903.06;;;7.79;100.00
50226;BME280;36113;50.742;6.432;2023-02-12T13:27:57;146918.03;;;7.85;100.00
50226;BME280;36113;50.742;6.432;2023-02-12T13:30:46;146901.78;;;7.78;100.00
50226;BME280;36113;50.742;6.432;2023-02-12T13:33:20;146918.03;;;7.85;100.00
50226;BME280;36113;50.742;6.432;2023-02-12T13:35:53;146906.78;;;7.80;100.00
50226;BME280;36113;50.742;6.432;2023-02-12T13:38:27;146919.28;;;7.85;100.00
50226;BME280;36113;50.742;6.432;2023-02-12T13:41:00;146885.53;;;7.72;100.00
50226;BME280;36113;50.742;6.432;2023-02-12T13:52:02;146876.78;;;7.68;100.00
50226;BME280;36113;50.742;6.432;2023-02-12T13:54:52;146863.06;;;7.62;100.00
50226;BME280;36113;50.742;6.432;2023-02-12T13:57:18;146825.56;;;7.47;100.00
50226;BME280;36113;50.742;6.432;2023-02-12T13:59:51;146869.28;;;7.65;100.00
50226;BME280;36113;50.742;6.432;2023-02-12T14:02:40;146860.53;;;7.61;100.00
50226;BME280;36113;50.742;6.432;2023-02-12T14:05:28;146806.84;;;7.39;100.00
50226;BME280;36113;50.742;6.432;2023-02-12T14:07:58;146833.06;;;7.50;100.00
50226;BME280;36113;50.742;6.432;2023-02-12T14:10:27;146833.06;;;7.50;100.00
50226;BME280;36113;50.742;6.432;2023-02-12T14:12:58;146824.31;;;7.46;100.00
50226;BME280;36113;50.742;6.432;2023-02-12T14:15:38;146836.81;;;7.51;100.00
50226;BME280;36113;50.742;6.432;2023-02-12T14:18:20;146774.34;;;7.26;100.00
50226;BME280;36113;50.742;6.432;2023-02-12T14:20:46;146860.53;;;7.61;100.00
50226;BME280;36113;50.742;6.432;2023-02-12T14:23:24;146870.56;;;7.65;100.00
50226;BME280;36113;50.742;6.432;2023-02-12T14:26:04;146808.06;;;7.40;100.00
50226;BME280;36113;50.742;6.432;2023-02-12T14:28:58;146870.56;;;7.65;100.00
50226;BME280;36113;50.742;6.432;2023-02-12T14:34:35;146840.59;;;7.53;100.00
50226;BME280;36113;50.742;6.432;2023-02-12T14:36:42;146809.31;;;7.40;100.00
50226;BME280;36113;50.742;6.432;2023-02-12T14:41:53;146820.56;;;7.45;100.00
50226;BME280;36113;50.742;6.432;2023-02-12T14:46:51;146816.81;;;7.43;100.00
50226;BME280;36113;50.742;6.432;2023-02-12T14:51:56;146808.06;;;7.40;100.00
50226;BME280;36113;50.742;6.432;2023-02-12T14:54:35;146831.78;;;7.49;100.00